< Typhoon 195211 1952 Season Typhoon 195213 >
Typhoon 195212 (NONA)
General InformationTrack Information on Google Maps || Disaster Info.ResourceGoogle EarthGE AnimationAtom FeedGeoJSON
Detalied Best Track (Time Zone = UTC)
Year Month Day Hour Lat. Long. Pressure (hPa) Wind (kt) Class Image Chart
1952 9 1 00 9.3 138.5 1006 0 2 -- Chart
1952 9 1 06 10.0 137.5 1004 0 2 -- Chart
1952 9 1 12 10.2 136.2 1002 0 2 -- Chart
1952 9 1 18 10.2 135.0 1002 0 9 -- Chart
1952 9 2 00 10.3 133.7 1000 0 9 -- Chart
1952 9 2 06 10.7 132.6 1000 0 9 -- Chart
1952 9 2 12 11.3 131.5 1000 0 9 -- Chart
1952 9 2 18 12.2 130.5 1000 0 9 -- Chart
1952 9 3 00 13.0 129.5 998 0 9 -- Chart
1952 9 3 06 13.9 128.3 994 0 9 -- Chart
1952 9 3 12 14.9 126.7 994 0 9 -- Chart
1952 9 3 18 15.8 125.0 990 0 9 -- Chart
1952 9 4 00 16.8 123.2 990 0 9 -- Chart
1952 9 4 06 17.5 122.3 990 0 9 -- Chart
1952 9 4 12 17.9 120.5 990 0 9 -- Chart
1952 9 4 18 18.2 119.0 990 0 9 -- Chart
1952 9 5 00 18.5 117.5 990 0 9 -- Chart
1952 9 5 06 18.9 116.0 985 0 9 -- Chart
1952 9 5 12 19.6 114.5 980 0 9 -- Chart
1952 9 5 18 19.8 113.0 980 0 9 -- Chart
1952 9 6 00 19.9 111.5 980 0 9 -- Chart
1952 9 6 06 20.2 110.0 980 0 9 -- Chart
1952 9 6 12 20.4 109.2 984 0 9 -- Chart
1952 9 6 18 20.7 108.3 990 0 9 -- Chart
1952 9 7 00 20.8 107.4 990 0 9 -- Chart
1952 9 7 06 20.9 106.6 990 0 9 -- Chart
1952 9 7 12 21.0 105.8 994 0 9 -- Chart
1952 9 7 18 21.0 105.0 998 0 9 -- Chart
1952 9 8 00 21.6 104.3 1000 0 9 -- Chart
Japan Meteorological Agency Best Track Data | Correction Date : 1989-06-01
< Typhoon 195211 1952 Season Typhoon 195213 >

Help